N1615A PGUM-PTKK
Flight info
| Callsign | N1615A |
|---|---|
| Flight time | 1h 20m |
| Altitude | 37000 |
| Route | GUNSS WUMVE |
| Aircraft | CL60/M-SBDE1E2E3FGHIJ4J5J7M3RWXYZ/LB1V1D1 |
Departure
| Time | 2026-04-23 02:16 |
|---|---|
| Airport | Antonio B. Won Pat International Airport (PGUM) |
Arrival
| Time | 2026-04-23 03:36 |
|---|---|
| Airport | Chuuk International Airport (PTKK) |
| Time | Latitude | Longitude | Altitude | Speed | Heading |
|---|---|---|---|---|---|
| 2026-04-23 01:52 | 13.49033 | 144.80275 | 269 ft | 0 kts | 334° |
| 2026-04-23 02:12 | 13.49034 | 144.80275 | 268 ft | 2 kts | 319° |
| 2026-04-23 02:12 | 13.49014 | 144.80266 | 269 ft | 2 kts | 150° |
| 2026-04-23 02:12 | 13.48996 | 144.80280 | 272 ft | 3 kts | 137° |
| 2026-04-23 02:12 | 13.48980 | 144.80296 | 274 ft | 8 kts | 139° |
| 2026-04-23 02:13 | 13.48909 | 144.80306 | 281 ft | 15 kts | 217° |
| 2026-04-23 02:13 | 13.48804 | 144.80131 | 274 ft | 36 kts | 245° |
| 2026-04-23 02:13 | 13.48681 | 144.79863 | 274 ft | 45 kts | 245° |
| 2026-04-23 02:13 | 13.48538 | 144.79552 | 274 ft | 51 kts | 245° |
| 2026-04-23 02:14 | 13.48376 | 144.79198 | 268 ft | 54 kts | 245° |
| 2026-04-23 02:14 | 13.48211 | 144.78838 | 257 ft | 56 kts | 246° |
| 2026-04-23 02:14 | 13.48042 | 144.78471 | 245 ft | 57 kts | 245° |
| 2026-04-23 02:14 | 13.47903 | 144.78169 | 236 ft | 14 kts | 243° |
| 2026-04-23 02:15 | 13.47806 | 144.78212 | 236 ft | 6 kts | 64° |
| 2026-04-23 02:15 | 13.47840 | 144.78287 | 241 ft | 34 kts | 66° |
| 2026-04-23 02:15 | 13.48070 | 144.78789 | 255 ft | 118 kts | 65° |
| 2026-04-23 02:16 | 13.48495 | 144.79710 | 547 ft | 157 kts | 64° |
| 2026-04-23 02:16 | 13.48991 | 144.80756 | 1279 ft | 168 kts | 66° |
| 2026-04-23 02:16 | 13.49422 | 144.81885 | 2039 ft | 180 kts | 78° |
| 2026-04-23 02:16 | 13.49090 | 144.83055 | 2919 ft | 189 kts | 128° |
| 2026-04-23 02:17 | 13.48098 | 144.84152 | 3386 ft | 225 kts | 129° |
| 2026-04-23 02:17 | 13.47029 | 144.85399 | 4207 ft | 242 kts | 126° |
| 2026-04-23 02:17 | 13.45949 | 144.86775 | 5008 ft | 257 kts | 126° |
| 2026-04-23 02:17 | 13.44812 | 144.88226 | 5987 ft | 262 kts | 127° |
| 2026-04-23 02:18 | 13.43669 | 144.89682 | 6894 ft | 268 kts | 127° |
| 2026-04-23 02:18 | 13.42479 | 144.91190 | 7809 ft | 275 kts | 127° |
| 2026-04-23 02:18 | 13.41265 | 144.92719 | 8729 ft | 280 kts | 127° |
| 2026-04-23 02:18 | 13.40018 | 144.94279 | 9628 ft | 285 kts | 128° |
| 2026-04-23 02:19 | 13.38754 | 144.95850 | 10394 ft | 295 kts | 128° |
| 2026-04-23 02:19 | 13.37335 | 144.97588 | 10522 ft | 328 kts | 129° |
| 2026-04-23 02:19 | 13.35823 | 144.99399 | 10981 ft | 345 kts | 129° |
| 2026-04-23 02:19 | 13.34234 | 145.01297 | 11705 ft | 354 kts | 130° |
| 2026-04-23 02:20 | 13.32605 | 145.03242 | 12480 ft | 359 kts | 130° |
| 2026-04-23 02:20 | 13.30961 | 145.05205 | 13186 ft | 364 kts | 130° |
| 2026-04-23 02:20 | 13.29305 | 145.07178 | 13855 ft | 369 kts | 130° |
| 2026-04-23 02:20 | 13.27605 | 145.09203 | 14521 ft | 375 kts | 130° |
| 2026-04-23 02:21 | 13.25890 | 145.11244 | 15185 ft | 379 kts | 130° |
| 2026-04-23 02:21 | 13.24162 | 145.13300 | 15799 ft | 384 kts | 130° |
| 2026-04-23 02:21 | 13.22397 | 145.15399 | 16414 ft | 389 kts | 130° |
| 2026-04-23 02:21 | 13.20609 | 145.17523 | 17015 ft | 393 kts | 130° |
| 2026-04-23 02:22 | 13.18825 | 145.19643 | 17579 ft | 397 kts | 130° |
| 2026-04-23 02:22 | 13.16993 | 145.21819 | 18158 ft | 401 kts | 130° |
| 2026-04-23 02:22 | 13.15155 | 145.23999 | 18732 ft | 404 kts | 130° |
| 2026-04-23 02:22 | 13.13298 | 145.26202 | 19288 ft | 408 kts | 130° |
| 2026-04-23 02:23 | 13.11425 | 145.28424 | 19829 ft | 411 kts | 130° |
| 2026-04-23 02:23 | 13.09545 | 145.30653 | 20357 ft | 414 kts | 130° |
| 2026-04-23 02:23 | 13.07653 | 145.32895 | 20871 ft | 417 kts | 130° |
| 2026-04-23 02:23 | 13.05743 | 145.35159 | 21371 ft | 420 kts | 130° |
| 2026-04-23 02:24 | 13.03818 | 145.37439 | 21863 ft | 423 kts | 130° |
| 2026-04-23 02:24 | 13.01883 | 145.39731 | 22343 ft | 425 kts | 130° |
| 2026-04-23 02:24 | 12.99958 | 145.42007 | 22814 ft | 428 kts | 130° |
| 2026-04-23 02:24 | 12.97979 | 145.44350 | 23261 ft | 431 kts | 130° |
| 2026-04-23 02:25 | 12.96002 | 145.46689 | 23686 ft | 435 kts | 130° |
| 2026-04-23 02:25 | 12.94002 | 145.49054 | 24092 ft | 439 kts | 130° |
| 2026-04-23 02:25 | 12.91990 | 145.51433 | 24510 ft | 442 kts | 130° |
| 2026-04-23 02:25 | 12.89950 | 145.53844 | 24903 ft | 446 kts | 130° |
| 2026-04-23 02:26 | 12.87929 | 145.56232 | 25307 ft | 448 kts | 130° |
| 2026-04-23 02:26 | 12.85854 | 145.58684 | 25701 ft | 451 kts | 130° |
| 2026-04-23 02:26 | 12.83799 | 145.61110 | 26075 ft | 454 kts | 130° |
| 2026-04-23 02:26 | 12.81698 | 145.63590 | 26443 ft | 457 kts | 130° |
| 2026-04-23 02:27 | 12.79622 | 145.66040 | 26770 ft | 460 kts | 130° |
| 2026-04-23 02:27 | 12.77512 | 145.68530 | 27116 ft | 462 kts | 130° |
| 2026-04-23 02:27 | 12.75388 | 145.71034 | 27444 ft | 465 kts | 130° |
| 2026-04-23 02:27 | 12.73258 | 145.73547 | 27761 ft | 468 kts | 130° |
| 2026-04-23 02:28 | 12.71098 | 145.76092 | 28092 ft | 470 kts | 130° |
| 2026-04-23 02:28 | 12.68942 | 145.78635 | 28388 ft | 473 kts | 130° |
| 2026-04-23 02:28 | 12.66775 | 145.81187 | 28699 ft | 474 kts | 130° |
| 2026-04-23 02:28 | 12.64609 | 145.83737 | 28989 ft | 477 kts | 131° |
| 2026-04-23 02:29 | 12.62418 | 145.86317 | 29266 ft | 479 kts | 131° |
| 2026-04-23 02:29 | 12.60214 | 145.88911 | 29553 ft | 480 kts | 131° |
| 2026-04-23 02:29 | 12.57994 | 145.91525 | 29890 ft | 480 kts | 131° |
| 2026-04-23 02:29 | 12.55789 | 145.94118 | 30278 ft | 478 kts | 131° |
| 2026-04-23 02:30 | 12.53596 | 145.96696 | 30682 ft | 476 kts | 131° |
| 2026-04-23 02:30 | 12.51405 | 145.99274 | 31056 ft | 475 kts | 131° |
| 2026-04-23 02:30 | 12.49236 | 146.01822 | 31389 ft | 475 kts | 131° |
| 2026-04-23 02:30 | 12.47038 | 146.04407 | 31716 ft | 474 kts | 131° |
| 2026-04-23 02:31 | 12.44855 | 146.06970 | 32048 ft | 473 kts | 131° |
| 2026-04-23 02:31 | 12.42699 | 146.09502 | 32360 ft | 473 kts | 132° |
| 2026-04-23 02:31 | 12.40505 | 146.12077 | 32660 ft | 472 kts | 132° |
| 2026-04-23 02:31 | 12.38361 | 146.14595 | 32983 ft | 471 kts | 132° |
| 2026-04-23 02:32 | 12.36178 | 146.17156 | 33322 ft | 470 kts | 132° |
| 2026-04-23 02:32 | 12.34007 | 146.19702 | 33656 ft | 469 kts | 132° |
| 2026-04-23 02:32 | 12.31863 | 146.22217 | 33979 ft | 468 kts | 132° |
| 2026-04-23 02:32 | 12.29716 | 146.24734 | 34289 ft | 467 kts | 132° |
| 2026-04-23 02:33 | 12.27552 | 146.27271 | 34581 ft | 466 kts | 132° |
| 2026-04-23 02:33 | 12.25428 | 146.29759 | 34872 ft | 465 kts | 132° |
| 2026-04-23 02:33 | 12.23272 | 146.32285 | 35147 ft | 464 kts | 132° |
| 2026-04-23 02:33 | 12.21143 | 146.34778 | 35384 ft | 464 kts | 132° |
| 2026-04-23 02:34 | 12.19027 | 146.37256 | 35635 ft | 463 kts | 132° |
| 2026-04-23 02:34 | 12.16870 | 146.39780 | 35885 ft | 462 kts | 132° |
| 2026-04-23 02:34 | 12.14753 | 146.42258 | 36115 ft | 462 kts | 132° |
| 2026-04-23 02:34 | 12.12640 | 146.44730 | 36326 ft | 461 kts | 132° |
| 2026-04-23 02:35 | 12.10496 | 146.47237 | 36510 ft | 461 kts | 132° |
| 2026-04-23 02:35 | 12.08383 | 146.49707 | 36684 ft | 462 kts | 132° |
| 2026-04-23 02:35 | 12.06262 | 146.52187 | 36848 ft | 462 kts | 132° |
| 2026-04-23 02:36 | 12.01969 | 146.57201 | 36929 ft | 467 kts | 132° |
| 2026-04-23 02:36 | 11.97669 | 146.62219 | 36928 ft | 473 kts | 132° |
| 2026-04-23 02:37 | 11.93281 | 146.67337 | 36926 ft | 476 kts | 132° |
| 2026-04-23 02:37 | 11.88877 | 146.72473 | 36925 ft | 476 kts | 132° |
| 2026-04-23 02:38 | 11.84485 | 146.77593 | 36923 ft | 475 kts | 132° |
| 2026-04-23 02:38 | 11.80108 | 146.82692 | 36925 ft | 475 kts | 132° |
| 2026-04-23 02:39 | 11.75737 | 146.87782 | 36916 ft | 475 kts | 132° |
| 2026-04-23 02:39 | 11.71343 | 146.92897 | 36908 ft | 475 kts | 132° |
| 2026-04-23 02:40 | 11.66971 | 146.97983 | 36907 ft | 475 kts | 132° |
| 2026-04-23 02:40 | 11.62609 | 147.03055 | 36907 ft | 475 kts | 132° |
| 2026-04-23 02:41 | 11.58219 | 147.08157 | 36908 ft | 475 kts | 132° |
| 2026-04-23 02:41 | 11.53829 | 147.13255 | 36907 ft | 475 kts | 132° |
| 2026-04-23 02:42 | 11.49438 | 147.18355 | 36906 ft | 475 kts | 132° |
| 2026-04-23 02:42 | 11.45096 | 147.23392 | 36907 ft | 475 kts | 132° |
| 2026-04-23 02:43 | 11.40709 | 147.28481 | 36906 ft | 475 kts | 132° |
| 2026-04-23 02:43 | 11.36308 | 147.33583 | 36908 ft | 475 kts | 132° |
| 2026-04-23 02:44 | 11.31909 | 147.38680 | 36908 ft | 475 kts | 132° |
| 2026-04-23 02:44 | 11.27528 | 147.43753 | 36908 ft | 475 kts | 132° |
| 2026-04-23 02:45 | 11.23133 | 147.48840 | 36907 ft | 475 kts | 132° |
| 2026-04-23 02:45 | 11.18790 | 147.53865 | 36907 ft | 474 kts | 132° |
| 2026-04-23 02:46 | 11.14400 | 147.58940 | 36907 ft | 474 kts | 132° |
| 2026-04-23 02:46 | 11.10020 | 147.64003 | 36906 ft | 474 kts | 132° |
| 2026-04-23 02:47 | 11.05614 | 147.69092 | 36906 ft | 475 kts | 132° |
| 2026-04-23 02:47 | 11.01268 | 147.74109 | 36907 ft | 475 kts | 132° |
| 2026-04-23 02:48 | 10.96857 | 147.79199 | 36904 ft | 474 kts | 132° |
| 2026-04-23 02:48 | 10.92467 | 147.84264 | 36901 ft | 474 kts | 132° |
| 2026-04-23 02:49 | 10.88095 | 147.89304 | 36900 ft | 473 kts | 132° |
| 2026-04-23 02:49 | 10.83702 | 147.94367 | 36905 ft | 473 kts | 131° |
| 2026-04-23 02:50 | 10.79334 | 147.99399 | 36894 ft | 473 kts | 132° |
| 2026-04-23 02:50 | 10.74958 | 148.04436 | 36886 ft | 474 kts | 131° |
| 2026-04-23 02:51 | 10.70603 | 148.09492 | 36887 ft | 474 kts | 131° |
| 2026-04-23 02:51 | 10.66258 | 148.14581 | 36886 ft | 474 kts | 131° |
| 2026-04-23 02:52 | 10.61920 | 148.19659 | 36890 ft | 473 kts | 131° |
| 2026-04-23 02:52 | 10.57593 | 148.24722 | 36893 ft | 473 kts | 131° |
| 2026-04-23 02:53 | 10.53254 | 148.29794 | 36898 ft | 473 kts | 131° |
| 2026-04-23 02:53 | 10.48919 | 148.34862 | 36905 ft | 473 kts | 131° |
| 2026-04-23 02:54 | 10.44555 | 148.39958 | 36901 ft | 473 kts | 131° |
| 2026-04-23 02:54 | 10.40205 | 148.45036 | 36896 ft | 473 kts | 131° |
| 2026-04-23 02:55 | 10.35893 | 148.50069 | 36893 ft | 473 kts | 131° |
| 2026-04-23 02:55 | 10.31537 | 148.55150 | 36891 ft | 473 kts | 131° |
| 2026-04-23 02:56 | 10.27151 | 148.60261 | 36892 ft | 472 kts | 131° |
| 2026-04-23 02:56 | 10.22834 | 148.65294 | 36891 ft | 472 kts | 131° |
| 2026-04-23 02:57 | 10.18508 | 148.70332 | 36889 ft | 471 kts | 131° |
| 2026-04-23 02:57 | 10.14176 | 148.75375 | 36887 ft | 471 kts | 131° |
| 2026-04-23 02:58 | 10.09866 | 148.80391 | 36885 ft | 471 kts | 131° |
| 2026-04-23 02:58 | 10.05536 | 148.85428 | 36882 ft | 471 kts | 131° |
| 2026-04-23 02:59 | 10.01214 | 148.90453 | 36882 ft | 470 kts | 131° |
| 2026-04-23 02:59 | 9.96888 | 148.95480 | 36885 ft | 470 kts | 131° |
| 2026-04-23 03:00 | 9.92565 | 149.00502 | 36887 ft | 470 kts | 131° |
| 2026-04-23 03:00 | 9.88226 | 149.05541 | 36886 ft | 470 kts | 131° |
| 2026-04-23 03:01 | 9.83906 | 149.10555 | 36885 ft | 470 kts | 131° |
| 2026-04-23 03:01 | 9.79601 | 149.15550 | 36883 ft | 470 kts | 131° |
| 2026-04-23 03:02 | 9.75273 | 149.20569 | 36880 ft | 470 kts | 131° |
| 2026-04-23 03:02 | 9.70940 | 149.25592 | 36881 ft | 470 kts | 131° |
| 2026-04-23 03:03 | 9.66605 | 149.30615 | 36880 ft | 470 kts | 131° |
| 2026-04-23 03:03 | 9.62306 | 149.35594 | 36884 ft | 470 kts | 131° |
| 2026-04-23 03:04 | 9.58010 | 149.40567 | 36885 ft | 470 kts | 131° |
| 2026-04-23 03:04 | 9.53658 | 149.45604 | 36885 ft | 470 kts | 131° |
| 2026-04-23 03:05 | 9.49298 | 149.50647 | 36886 ft | 470 kts | 131° |
| 2026-04-23 03:05 | 9.44974 | 149.55647 | 36886 ft | 470 kts | 131° |
| 2026-04-23 03:06 | 9.40658 | 149.60635 | 36886 ft | 470 kts | 131° |
| 2026-04-23 03:06 | 9.36321 | 149.65646 | 36886 ft | 469 kts | 131° |
| 2026-04-23 03:07 | 9.32013 | 149.70622 | 36886 ft | 469 kts | 131° |
| 2026-04-23 03:07 | 9.27689 | 149.75613 | 36886 ft | 468 kts | 131° |
| 2026-04-23 03:08 | 9.23347 | 149.80624 | 36886 ft | 468 kts | 131° |
| 2026-04-23 03:08 | 9.19064 | 149.85565 | 36886 ft | 468 kts | 131° |
| 2026-04-23 03:09 | 9.14737 | 149.90555 | 36886 ft | 468 kts | 131° |
| 2026-04-23 03:09 | 9.10439 | 149.95508 | 36885 ft | 468 kts | 131° |
| 2026-04-23 03:10 | 9.06119 | 150.00485 | 36873 ft | 468 kts | 131° |
| 2026-04-23 03:10 | 9.01823 | 150.05434 | 36863 ft | 467 kts | 131° |
| 2026-04-23 03:11 | 8.97495 | 150.10416 | 36864 ft | 467 kts | 131° |
| 2026-04-23 03:11 | 8.93171 | 150.15393 | 36864 ft | 467 kts | 131° |
| 2026-04-23 03:12 | 8.88853 | 150.20361 | 36862 ft | 467 kts | 131° |
| 2026-04-23 03:12 | 8.84555 | 150.25304 | 36864 ft | 467 kts | 131° |
| 2026-04-23 03:13 | 8.80237 | 150.30267 | 36864 ft | 467 kts | 131° |
| 2026-04-23 03:13 | 8.75897 | 150.35255 | 36866 ft | 467 kts | 131° |
| 2026-04-23 03:14 | 8.71622 | 150.40167 | 36865 ft | 467 kts | 131° |
| 2026-04-23 03:14 | 8.67312 | 150.45116 | 36865 ft | 467 kts | 131° |
| 2026-04-23 03:15 | 8.62984 | 150.50084 | 36374 ft | 471 kts | 131° |
| 2026-04-23 03:15 | 8.60839 | 150.52545 | 35792 ft | 466 kts | 131° |
| 2026-04-23 03:15 | 8.58683 | 150.55019 | 35194 ft | 461 kts | 130° |
| 2026-04-23 03:15 | 8.56548 | 150.57468 | 34601 ft | 458 kts | 131° |
| 2026-04-23 03:16 | 8.54442 | 150.59883 | 34026 ft | 457 kts | 130° |
| 2026-04-23 03:16 | 8.52344 | 150.62289 | 33439 ft | 458 kts | 130° |
| 2026-04-23 03:16 | 8.48091 | 150.67165 | 32234 ft | 460 kts | 131° |
| 2026-04-23 03:17 | 8.45979 | 150.69586 | 31610 ft | 461 kts | 131° |
| 2026-04-23 03:17 | 8.43861 | 150.72014 | 31001 ft | 461 kts | 130° |
| 2026-04-23 03:17 | 8.41715 | 150.74472 | 30379 ft | 462 kts | 130° |
| 2026-04-23 03:17 | 8.39578 | 150.76921 | 29763 ft | 463 kts | 130° |
| 2026-04-23 03:18 | 8.37482 | 150.79356 | 29224 ft | 463 kts | 129° |
| 2026-04-23 03:18 | 8.35356 | 150.81819 | 28531 ft | 466 kts | 131° |
| 2026-04-23 03:18 | 8.33213 | 150.84262 | 27938 ft | 460 kts | 131° |
| 2026-04-23 03:18 | 8.31103 | 150.86671 | 27305 ft | 454 kts | 131° |
| 2026-04-23 03:19 | 8.29012 | 150.89058 | 26712 ft | 448 kts | 131° |
| 2026-04-23 03:19 | 8.26944 | 150.91419 | 26109 ft | 443 kts | 131° |
| 2026-04-23 03:19 | 8.24901 | 150.93751 | 25521 ft | 439 kts | 131° |
| 2026-04-23 03:19 | 8.22889 | 150.96050 | 24940 ft | 435 kts | 131° |
| 2026-04-23 03:20 | 8.20891 | 150.98332 | 24366 ft | 432 kts | 131° |
| 2026-04-23 03:20 | 8.18914 | 151.00591 | 23793 ft | 428 kts | 131° |
| 2026-04-23 03:20 | 8.16929 | 151.02858 | 23224 ft | 425 kts | 132° |
| 2026-04-23 03:20 | 8.14978 | 151.05087 | 22663 ft | 422 kts | 132° |
| 2026-04-23 03:21 | 8.13021 | 151.07323 | 22103 ft | 418 kts | 132° |
| 2026-04-23 03:21 | 8.11088 | 151.09529 | 21547 ft | 416 kts | 132° |
| 2026-04-23 03:21 | 8.09170 | 151.11720 | 20987 ft | 412 kts | 131° |
| 2026-04-23 03:21 | 8.07298 | 151.13860 | 20446 ft | 407 kts | 131° |
| 2026-04-23 03:22 | 8.05420 | 151.16003 | 19905 ft | 402 kts | 131° |
| 2026-04-23 03:22 | 8.03578 | 151.18106 | 19374 ft | 398 kts | 131° |
| 2026-04-23 03:22 | 8.01741 | 151.20204 | 18846 ft | 395 kts | 131° |
| 2026-04-23 03:22 | 7.99911 | 151.22293 | 18318 ft | 391 kts | 131° |
| 2026-04-23 03:23 | 7.98126 | 151.24332 | 17806 ft | 388 kts | 131° |
| 2026-04-23 03:23 | 7.96328 | 151.26384 | 17285 ft | 385 kts | 131° |
| 2026-04-23 03:23 | 7.94567 | 151.28394 | 16777 ft | 381 kts | 131° |
| 2026-04-23 03:23 | 7.92803 | 151.30406 | 16262 ft | 378 kts | 130° |
| 2026-04-23 03:24 | 7.91076 | 151.32378 | 15761 ft | 375 kts | 130° |
| 2026-04-23 03:24 | 7.89382 | 151.34309 | 15269 ft | 372 kts | 130° |
| 2026-04-23 03:24 | 7.87634 | 151.36304 | 14760 ft | 369 kts | 130° |
| 2026-04-23 03:24 | 7.85922 | 151.38257 | 14271 ft | 366 kts | 130° |
| 2026-04-23 03:25 | 7.84236 | 151.40179 | 13785 ft | 362 kts | 131° |
| 2026-04-23 03:25 | 7.82576 | 151.42073 | 13303 ft | 355 kts | 131° |
| 2026-04-23 03:25 | 7.80922 | 151.43959 | 12830 ft | 348 kts | 130° |
| 2026-04-23 03:25 | 7.79258 | 151.45747 | 12367 ft | 342 kts | 138° |
| 2026-04-23 03:26 | 7.77240 | 151.47018 | 11933 ft | 336 kts | 153° |
| 2026-04-23 03:26 | 7.75095 | 151.47972 | 11485 ft | 331 kts | 154° |
| 2026-04-23 03:26 | 7.72961 | 151.48923 | 11038 ft | 326 kts | 154° |
| 2026-04-23 03:26 | 7.70859 | 151.49860 | 10600 ft | 322 kts | 154° |
| 2026-04-23 03:27 | 7.68850 | 151.50757 | 10182 ft | 317 kts | 154° |
| 2026-04-23 03:27 | 7.66784 | 151.51678 | 9749 ft | 313 kts | 153° |
| 2026-04-23 03:27 | 7.64797 | 151.52563 | 9338 ft | 309 kts | 153° |
| 2026-04-23 03:27 | 7.62822 | 151.53445 | 8935 ft | 305 kts | 153° |
| 2026-04-23 03:28 | 7.60870 | 151.54317 | 8525 ft | 301 kts | 153° |
| 2026-04-23 03:28 | 7.58935 | 151.55180 | 8125 ft | 297 kts | 153° |
| 2026-04-23 03:28 | 7.57057 | 151.56018 | 7742 ft | 293 kts | 153° |
| 2026-04-23 03:28 | 7.55190 | 151.56851 | 7427 ft | 286 kts | 153° |
| 2026-04-23 03:29 | 7.53364 | 151.57665 | 7115 ft | 282 kts | 153° |
| 2026-04-23 03:29 | 7.51561 | 151.58469 | 6667 ft | 277 kts | 153° |
| 2026-04-23 03:29 | 7.49795 | 151.59256 | 6338 ft | 270 kts | 153° |
| 2026-04-23 03:29 | 7.48065 | 151.60028 | 5969 ft | 272 kts | 153° |
| 2026-04-23 03:30 | 7.46301 | 151.60817 | 5618 ft | 272 kts | 153° |
| 2026-04-23 03:30 | 7.44583 | 151.61583 | 5248 ft | 271 kts | 153° |
| 2026-04-23 03:30 | 7.42953 | 151.62535 | 4894 ft | 265 kts | 136° |
| 2026-04-23 03:30 | 7.41622 | 151.63811 | 4543 ft | 263 kts | 134° |
| 2026-04-23 03:31 | 7.40296 | 151.65102 | 4204 ft | 263 kts | 134° |
| 2026-04-23 03:31 | 7.38976 | 151.66385 | 3849 ft | 261 kts | 134° |
| 2026-04-23 03:31 | 7.37684 | 151.67636 | 3484 ft | 242 kts | 134° |
| 2026-04-23 03:31 | 7.36512 | 151.68770 | 3193 ft | 224 kts | 133° |
| 2026-04-23 03:32 | 7.35492 | 151.69917 | 2908 ft | 216 kts | 118° |
| 2026-04-23 03:32 | 7.35035 | 151.71318 | 2608 ft | 210 kts | 91° |
| 2026-04-23 03:32 | 7.35309 | 151.72737 | 2484 ft | 207 kts | 64° |
| 2026-04-23 03:32 | 7.36169 | 151.73940 | 2504 ft | 211 kts | 49° |
| 2026-04-23 03:33 | 7.37223 | 151.75021 | 2316 ft | 217 kts | 47° |
| 2026-04-23 03:33 | 7.38277 | 151.76099 | 2038 ft | 213 kts | 48° |
| 2026-04-23 03:33 | 7.39320 | 151.77177 | 1804 ft | 208 kts | 48° |
| 2026-04-23 03:33 | 7.40261 | 151.78149 | 1677 ft | 175 kts | 48° |
| 2026-04-23 03:34 | 7.41033 | 151.78946 | 1683 ft | 141 kts | 48° |
| 2026-04-23 03:34 | 7.41679 | 151.79617 | 1349 ft | 133 kts | 49° |
| 2026-04-23 03:34 | 7.42332 | 151.80295 | 806 ft | 135 kts | 47° |
| 2026-04-23 03:34 | 7.42971 | 151.80960 | 546 ft | 131 kts | 49° |
| 2026-04-23 03:35 | 7.43637 | 151.81641 | 458 ft | 135 kts | 49° |
| 2026-04-23 03:35 | 7.44267 | 151.82336 | 383 ft | 138 kts | 46° |
| 2026-04-23 03:35 | 7.44955 | 151.83028 | 212 ft | 139 kts | 47° |
| 2026-04-23 03:35 | 7.45641 | 151.83730 | 45 ft | 143 kts | 46° |
| 2026-04-23 03:36 | 7.46253 | 151.84366 | 25 ft | 75 kts | 46° |
| 2026-04-23 03:36 | 7.46415 | 151.84543 | 25 ft | 11 kts | 64° |
| 2026-04-23 03:36 | 7.46407 | 151.84508 | 25 ft | 14 kts | 224° |
| 2026-04-23 03:36 | 7.46303 | 151.84407 | 26 ft | 24 kts | 225° |
| 2026-04-23 03:37 | 7.46177 | 151.84274 | 23 ft | 27 kts | 226° |
| 2026-04-23 03:37 | 7.46033 | 151.84126 | 20 ft | 30 kts | 225° |
| 2026-04-23 03:37 | 7.45933 | 151.84033 | 19 ft | 12 kts | 194° |
| 2026-04-23 03:37 | 7.45858 | 151.84073 | 20 ft | 13 kts | 139° |
| 2026-04-23 03:38 | 7.45785 | 151.84105 | 20 ft | 11 kts | 200° |
| 2026-04-23 03:38 | 7.45773 | 151.84093 | 19 ft | 0 kts | 230° |